createdAt,value
2022-08-10T00:01:53.458Z,45.20
2022-08-10T00:04:24.311Z,45.79
2022-08-10T00:06:54.645Z,46.20
2022-08-10T00:09:23.856Z,46.10
2022-08-10T00:11:51.423Z,46.54
2022-08-10T00:14:18.631Z,46.87
2022-08-10T00:16:45.593Z,46.30
2022-08-10T00:19:12.779Z,45.72
2022-08-10T00:21:44.569Z,45.56
2022-08-10T00:24:11.491Z,45.81
2022-08-10T00:27:51.974Z,46.02
2022-08-10T00:29:25.407Z,45.74
2022-08-10T00:31:58.199Z,46.39
2022-08-10T00:34:28.568Z,45.85
2022-08-10T00:36:56.310Z,46.34
2022-08-10T00:39:23.719Z,46.37
2022-08-10T00:42:06.792Z,46.62
2022-08-10T00:44:40.748Z,46.58
2022-08-10T00:47:10.364Z,46.93
2022-08-10T00:49:56.345Z,46.89
2022-08-10T00:52:25.241Z,47.03
2022-08-10T00:54:53.384Z,47.15
2022-08-10T00:57:21.033Z,47.26
2022-08-10T00:59:58.745Z,47.33
2022-08-10T01:02:29.429Z,47.41
2022-08-10T01:05:04.749Z,47.37
2022-08-10T01:07:50.979Z,48.05
2022-08-10T01:10:53.393Z,48.74
2022-08-10T01:14:15.138Z,48.00
2022-08-10T01:17:00.355Z,47.78
2022-08-10T01:20:02.474Z,48.19
2022-08-10T01:22:52.644Z,48.76
2022-08-10T01:25:33.881Z,48.71
2022-08-10T01:28:49.244Z,49.39
2022-08-10T01:31:23.798Z,48.97
2022-08-10T01:34:02.358Z,48.43
2022-08-10T01:36:39.871Z,48.26
2022-08-10T01:39:09.522Z,48.24
2022-08-10T01:41:47.158Z,48.50
2022-08-10T01:44:23.085Z,48.88
2022-08-10T01:47:21.746Z,49.18
2022-08-10T01:49:56.648Z,49.31
2022-08-10T01:52:27.383Z,49.48
2022-08-10T01:54:58.234Z,49.52
2022-08-10T01:57:28.941Z,49.33
2022-08-10T02:00:02.988Z,49.50
2022-08-10T02:02:32.923Z,49.52
2022-08-10T02:05:05.257Z,49.94
2022-08-10T02:07:37.795Z,49.42
2022-08-10T02:10:12.962Z,49.92
2022-08-10T02:12:43.223Z,49.95
2022-08-10T02:15:19.294Z,50.09
2022-08-10T02:18:01.842Z,49.67
2022-08-10T02:20:41.424Z,50.03
2022-08-10T02:23:15.297Z,50.07
2022-08-10T02:25:44.908Z,50.65
2022-08-10T02:28:29.992Z,51.00
2022-08-10T02:31:23.459Z,51.13
2022-08-10T02:33:57.653Z,51.03
2022-08-10T02:36:31.177Z,50.57
2022-08-10T02:39:03.696Z,50.75
2022-08-10T02:42:18.645Z,50.82
2022-08-10T02:45:19.339Z,51.28
2022-08-10T02:47:56.943Z,51.19
2022-08-10T02:50:35.325Z,51.10
2022-08-10T02:53:56.651Z,51.14
2022-08-10T02:56:28.813Z,51.68
2022-08-10T02:59:00.949Z,52.37
2022-08-10T03:01:36.814Z,52.10
2022-08-10T03:04:56.068Z,51.81
2022-08-10T03:07:44.449Z,51.95
2022-08-10T03:10:23.607Z,52.51
2022-08-10T03:12:57.579Z,52.90
2022-08-10T03:15:28.570Z,53.32
2022-08-10T03:17:58.922Z,53.08
2022-08-10T03:20:36.465Z,53.30
2022-08-10T03:23:12.792Z,53.75
2022-08-10T03:25:53.249Z,54.12
2022-08-10T03:28:24.591Z,54.36
2022-08-10T03:30:53.406Z,54.60
2022-08-10T03:33:23.623Z,54.77
2022-08-10T03:36:42.445Z,55.05
2022-08-10T03:38:45.961Z,55.11
2022-08-10T03:41:16.723Z,55.26
2022-08-10T03:43:48.790Z,54.72
2022-08-10T03:46:23.895Z,54.43
2022-08-10T03:48:55.729Z,54.38
2022-08-10T03:51:25.590Z,54.42
2022-08-10T03:54:03.817Z,54.89
2022-08-10T03:56:39.763Z,55.36
2022-08-10T03:59:12.255Z,55.59
2022-08-10T04:02:47.139Z,56.02
2022-08-10T04:04:28.883Z,55.75
2022-08-10T04:06:59.204Z,55.44
2022-08-10T04:09:53.586Z,55.58
2022-08-10T04:12:23.548Z,56.20
2022-08-10T04:14:52.894Z,56.16
2022-08-10T04:17:57.031Z,56.25
2022-08-10T04:20:34.443Z,56.68
2022-08-10T04:23:12.146Z,56.92
2022-08-10T04:25:40.837Z,56.74
2022-08-10T04:28:09.358Z,56.66
2022-08-10T04:30:38.515Z,57.06
2022-08-10T04:33:08.976Z,56.65
2022-08-10T04:35:37.528Z,56.90
2022-08-10T04:38:06.775Z,57.61
2022-08-10T04:40:33.866Z,58.16
2022-08-10T04:43:12.237Z,58.17
2022-08-10T04:45:50.524Z,57.92
2022-08-10T04:48:42.118Z,57.00
2022-08-10T04:51:18.297Z,56.66
2022-08-10T04:54:04.863Z,56.47
2022-08-10T04:56:39.244Z,57.16
2022-08-10T04:59:09.249Z,57.18
2022-08-10T05:02:21.954Z,57.05
2022-08-10T05:04:35.956Z,57.13
2022-08-10T05:07:16.867Z,57.22
2022-08-10T05:10:04.510Z,57.15
2022-08-10T05:12:40.735Z,57.71
2022-08-10T05:15:13.881Z,57.27
2022-08-10T05:18:04.644Z,57.06
2022-08-10T05:20:30.692Z,56.67
2022-08-10T05:22:58.778Z,57.25
2022-08-10T05:25:25.915Z,57.00
2022-08-10T05:27:54.741Z,56.39
2022-08-10T05:30:25.082Z,56.09
2022-08-10T05:32:56.506Z,55.50
2022-08-10T05:35:27.778Z,55.73
2022-08-10T05:38:10.636Z,55.33
2022-08-10T05:40:46.586Z,55.77
2022-08-10T05:43:21.836Z,55.45
2022-08-10T05:46:19.687Z,55.02
2022-08-10T05:48:58.938Z,54.28
2022-08-10T05:51:29.552Z,54.46
2022-08-10T05:54:02.116Z,54.58
2022-08-10T05:56:54.766Z,54.48
2022-08-10T06:00:35.615Z,54.00
2022-08-10T06:02:38.833Z,53.83
2022-08-10T06:05:30.579Z,53.65
2022-08-10T06:08:17.421Z,53.87
2022-08-10T06:12:23.949Z,53.49
2022-08-10T06:14:13.821Z,53.27
2022-08-10T06:16:44.391Z,53.33
2022-08-10T06:19:14.975Z,53.11
2022-08-10T06:22:00.651Z,53.11
2022-08-10T06:24:57.271Z,52.71
2022-08-10T06:27:34.623Z,52.43
2022-08-10T06:30:02.576Z,52.70
2022-08-10T06:32:31.657Z,52.73
2022-08-10T06:35:01.333Z,52.32
2022-08-10T06:37:33.260Z,52.31
2022-08-10T06:40:00.323Z,52.22
2022-08-10T06:42:41.090Z,51.76
2022-08-10T06:45:30.675Z,51.07
2022-08-10T06:48:21.018Z,50.59
2022-08-10T06:50:58.210Z,50.58
2022-08-10T06:53:53.249Z,50.38
2022-08-10T06:56:38.086Z,50.41
2022-08-10T06:59:30.953Z,49.82
2022-08-10T07:02:12.150Z,49.32
2022-08-10T07:05:03.713Z,48.60
2022-08-10T07:07:38.783Z,47.77
2022-08-10T07:10:08.821Z,47.36
2022-08-10T07:12:39.016Z,46.81
2022-08-10T07:15:12.222Z,46.37
2022-08-10T07:17:41.518Z,46.25
2022-08-10T07:20:11.738Z,45.79
2022-08-10T07:23:01.736Z,45.55
2022-08-10T07:25:29.764Z,45.23
2022-08-10T07:28:01.929Z,44.75
2022-08-10T07:30:35.850Z,44.56
2022-08-10T07:33:05.472Z,43.97
2022-08-10T07:35:42.345Z,43.61
2022-08-10T07:38:27.774Z,43.32
2022-08-10T07:40:58.245Z,42.81
2022-08-10T07:43:31.672Z,42.28
2022-08-10T07:46:01.896Z,42.24
2022-08-10T07:48:39.095Z,42.04
2022-08-10T07:51:09.725Z,41.20
2022-08-10T07:53:45.277Z,41.00
2022-08-10T07:56:26.275Z,40.66
2022-08-10T07:59:10.817Z,39.78
2022-08-10T08:01:50.452Z,39.71
2022-08-10T08:04:21.925Z,39.77
2022-08-10T08:06:52.163Z,38.23
2022-08-10T08:09:21.951Z,38.47
2022-08-10T08:11:51.453Z,38.32
2022-08-10T08:14:21.990Z,37.75
2022-08-10T08:16:53.204Z,37.51
2022-08-10T08:19:35.922Z,37.41
2022-08-10T08:24:07.955Z,36.82
2022-08-10T08:25:03.592Z,36.13
2022-08-10T08:27:33.219Z,35.12
2022-08-10T08:30:01.807Z,35.61
2022-08-10T08:32:33.284Z,35.00
2022-08-10T08:35:14.698Z,35.07
2022-08-10T08:38:32.338Z,34.45
2022-08-10T08:40:39.155Z,35.14
2022-08-10T08:43:44.880Z,34.32
2022-08-10T08:46:44.290Z,34.73
2022-08-10T08:50:07.985Z,34.24
2022-08-10T08:52:59.653Z,34.04
2022-08-10T08:56:03.669Z,34.27
2022-08-10T08:59:09.830Z,33.73
2022-08-10T09:01:58.341Z,33.51
2022-08-10T09:04:57.235Z,33.20
2022-08-10T09:08:00.174Z,32.23
2022-08-10T09:10:44.320Z,33.42
2022-08-10T09:13:29.465Z,30.86
2022-08-10T09:16:35.209Z,31.14
2022-08-10T09:19:35.361Z,32.27
2022-08-10T09:22:32.397Z,28.53
2022-08-10T09:25:18.540Z,27.02
2022-08-10T09:28:14.110Z,28.92
2022-08-10T09:31:21.324Z,29.06
2022-08-10T09:36:21.260Z,28.09
2022-08-10T09:38:01.319Z,29.51
2022-08-10T09:40:59.927Z,27.06
2022-08-10T09:43:44.029Z,26.98
2022-08-10T09:46:33.271Z,25.16
2022-08-10T09:49:22.368Z,25.03
2022-08-10T09:52:15.123Z,25.77
2022-08-10T09:55:12.865Z,27.26
2022-08-10T09:57:46.298Z,29.09
2022-08-10T10:00:25.898Z,27.53
2022-08-10T10:03:36.168Z,28.18
2022-08-10T10:06:12.199Z,26.85
2022-08-10T10:09:15.531Z,23.49
2022-08-10T10:12:10.188Z,22.80
2022-08-10T10:15:33.040Z,26.58
2022-08-10T10:18:02.817Z,26.33
2022-08-10T10:20:49.934Z,24.87
2022-08-10T10:24:15.525Z,27.01
2022-08-10T10:27:02.438Z,25.33
2022-08-10T10:30:01.501Z,24.17
2022-08-10T10:32:58.235Z,25.93
2022-08-10T10:35:36.526Z,25.81
2022-08-10T10:38:08.978Z,23.97
2022-08-10T10:40:46.400Z,24.58
2022-08-10T10:43:45.126Z,22.10
2022-08-10T10:46:29.960Z,21.42
2022-08-10T10:49:31.123Z,22.27
2022-08-10T10:52:25.238Z,22.81
2022-08-10T10:55:30.432Z,24.02
2022-08-10T10:58:23.238Z,22.41
2022-08-10T11:01:28.494Z,24.44
2022-08-10T11:04:27.409Z,21.39
2022-08-10T11:07:31.893Z,22.32
2022-08-10T11:10:32.083Z,22.39
2022-08-10T11:14:24.800Z,21.85
2022-08-10T11:16:28.671Z,21.54
2022-08-10T11:19:23.091Z,20.32
2022-08-10T11:22:20.284Z,21.19
2022-08-10T11:25:01.648Z,21.54
2022-08-10T11:27:59.291Z,19.42
2022-08-10T11:30:55.430Z,19.94
2022-08-10T11:38:34.436Z,20.67
2022-08-10T11:40:49.135Z,18.11
2022-08-10T11:43:27.034Z,18.32
2022-08-10T11:46:28.789Z,17.86
2022-08-10T11:49:32.004Z,17.04
2022-08-10T11:52:15.441Z,17.00
2022-08-10T11:54:55.006Z,17.13
2022-08-10T11:57:53.981Z,16.81
2022-08-10T12:00:19.921Z,16.72
2022-08-10T12:02:56.586Z,17.00
2022-08-10T12:05:46.588Z,16.76
2022-08-10T12:10:04.616Z,16.54
2022-08-10T12:11:23.928Z,16.81
2022-08-10T12:14:32.313Z,17.54
2022-08-10T12:17:25.132Z,16.21
2022-08-10T12:20:03.915Z,15.66
2022-08-10T12:22:58.180Z,15.69
2022-08-10T12:25:58.322Z,15.42
2022-08-10T12:28:52.141Z,15.39
2022-08-10T12:31:29.722Z,15.27
2022-08-10T12:34:23.275Z,15.18
2022-08-10T12:37:28.694Z,15.00
2022-08-10T12:40:41.244Z,14.86
2022-08-10T12:44:07.454Z,14.91
2022-08-10T12:46:31.118Z,14.61
2022-08-10T12:49:20.078Z,14.91
2022-08-10T12:52:17.582Z,14.85
2022-08-10T12:54:46.420Z,14.80
2022-08-10T12:57:19.093Z,14.46
2022-08-10T12:59:56.798Z,14.78
2022-08-10T13:02:29.565Z,14.05
2022-08-10T13:05:02.908Z,14.29
2022-08-10T13:08:04.062Z,15.08
2022-08-10T13:10:25.136Z,14.39
2022-08-10T13:12:58.174Z,14.36
2022-08-10T13:15:48.645Z,14.14
2022-08-10T13:18:34.072Z,14.02
2022-08-10T13:21:20.373Z,14.33
2022-08-10T13:24:03.603Z,14.09
2022-08-10T13:27:22.729Z,13.57
2022-08-10T13:29:36.650Z,13.72
2022-08-10T13:32:10.393Z,14.02
2022-08-10T13:34:46.085Z,13.90
2022-08-10T13:37:22.995Z,13.33
2022-08-10T13:39:58.830Z,13.54
2022-08-10T13:42:35.794Z,13.50
2022-08-10T13:45:14.549Z,14.04
2022-08-10T13:47:48.934Z,13.85
2022-08-10T13:50:33.691Z,14.38
2022-08-10T13:53:14.402Z,14.69
2022-08-10T13:55:54.981Z,14.51
2022-08-10T13:58:37.024Z,14.70
2022-08-10T14:01:21.175Z,14.42
2022-08-10T14:03:51.418Z,14.57
2022-08-10T14:06:29.763Z,14.43
2022-08-10T14:09:02.137Z,14.45
2022-08-10T14:11:31.847Z,14.68
2022-08-10T14:14:21.124Z,14.66
2022-08-10T14:16:50.761Z,14.43
2022-08-10T14:19:26.511Z,14.66
2022-08-10T14:21:55.167Z,14.82
2022-08-10T14:24:29.571Z,14.75
2022-08-10T14:27:11.464Z,14.63
2022-08-10T14:29:53.475Z,15.07
2022-08-10T14:32:25.853Z,15.01
2022-08-10T14:36:15.372Z,15.39
2022-08-10T14:37:54.651Z,15.64
2022-08-10T14:40:33.670Z,15.58
2022-08-10T14:43:06.858Z,15.66
2022-08-10T14:45:41.920Z,15.53
2022-08-10T14:48:16.398Z,16.32
2022-08-10T14:50:55.543Z,16.33
2022-08-10T14:53:27.908Z,16.64
2022-08-10T14:56:04.243Z,16.11
2022-08-10T14:59:06.427Z,16.16
2022-08-10T15:02:01.514Z,16.47
2022-08-10T15:04:26.758Z,17.27
2022-08-10T15:07:03.308Z,17.47
2022-08-10T15:10:00.830Z,17.42
2022-08-10T15:12:41.241Z,17.47
2022-08-10T15:15:16.344Z,18.21
2022-08-10T15:17:53.613Z,18.46
2022-08-10T15:20:29.925Z,18.89
2022-08-10T15:23:31.318Z,19.00
2022-08-10T15:26:11.258Z,19.17
2022-08-10T15:29:22.349Z,18.71
2022-08-10T15:31:35.533Z,18.64
2022-08-10T15:34:28.886Z,18.66
2022-08-10T15:37:02.302Z,18.91
2022-08-10T15:40:21.642Z,19.81
2022-08-10T15:43:05.655Z,19.73
2022-08-10T15:46:02.775Z,20.53
2022-08-10T15:48:40.135Z,20.23
2022-08-10T15:51:21.768Z,20.51
2022-08-10T15:54:12.063Z,20.86
2022-08-10T15:56:58.937Z,20.46
2022-08-10T15:59:43.223Z,20.90
2022-08-10T16:02:18.735Z,21.44
2022-08-10T16:05:08.138Z,20.80
2022-08-10T16:07:46.271Z,21.38
2022-08-10T16:10:28.244Z,21.63
2022-08-10T16:14:00.460Z,21.09
2022-08-10T16:16:02.885Z,21.19
2022-08-10T16:18:36.750Z,20.79
2022-08-10T16:21:22.310Z,21.16
2022-08-10T16:24:14.361Z,21.44
2022-08-10T16:26:50.113Z,21.66
2022-08-10T16:29:24.823Z,21.75
2022-08-10T16:31:57.162Z,21.87
2022-08-10T16:34:29.273Z,21.69
2022-08-10T16:37:09.620Z,21.96
2022-08-10T16:39:58.554Z,22.70
2022-08-10T16:42:33.391Z,21.62
2022-08-10T16:45:14.982Z,21.94
2022-08-10T16:47:51.745Z,21.92
2022-08-10T16:50:29.786Z,22.33
2022-08-10T16:53:02.087Z,21.98
2022-08-10T16:55:49.893Z,22.21
2022-08-10T16:58:29.806Z,21.76
2022-08-10T17:01:16.439Z,22.25
2022-08-10T17:04:06.481Z,22.49
2022-08-10T17:07:03.808Z,22.15
2022-08-10T17:09:35.236Z,22.47
2022-08-10T17:12:16.382Z,22.68
2022-08-10T17:14:44.756Z,22.44
2022-08-10T17:17:37.519Z,22.36
2022-08-10T17:20:30.177Z,22.21
2022-08-10T17:23:02.703Z,22.16
2022-08-10T17:25:46.206Z,22.47
2022-08-10T17:28:32.665Z,22.64
2022-08-10T17:31:39.702Z,22.39
2022-08-10T17:34:28.347Z,22.58
2022-08-10T17:37:03.885Z,22.53
2022-08-10T17:39:50.063Z,22.75
2022-08-10T17:42:22.273Z,22.97
2022-08-10T17:44:53.298Z,22.87
2022-08-10T17:47:27.687Z,23.36
2022-08-10T17:50:03.510Z,23.14
2022-08-10T17:52:33.433Z,23.16
2022-08-10T17:55:06.969Z,22.96
2022-08-10T17:57:40.314Z,23.40
2022-08-10T18:00:14.905Z,23.16
2022-08-10T18:02:48.867Z,23.34
2022-08-10T18:05:17.631Z,23.15
2022-08-10T18:07:53.203Z,23.60
2022-08-10T18:10:24.629Z,23.33
2022-08-10T18:12:56.788Z,23.27
2022-08-10T18:15:29.658Z,23.34
2022-08-10T18:18:02.570Z,23.44
2022-08-10T18:20:39.107Z,23.77
2022-08-10T18:23:08.375Z,24.45
2022-08-10T18:25:43.428Z,24.88
2022-08-10T18:28:20.295Z,24.74
2022-08-10T18:30:55.143Z,24.74
2022-08-10T18:33:32.684Z,24.89
2022-08-10T18:36:09.346Z,25.78
2022-08-10T18:38:40.262Z,25.24
2022-08-10T18:41:16.720Z,25.91
2022-08-10T18:44:06.976Z,26.47
2022-08-10T18:46:46.532Z,26.69
2022-08-10T18:49:25.946Z,27.22
2022-08-10T18:52:01.958Z,28.44
2022-08-10T18:54:44.555Z,27.83
2022-08-10T18:57:35.773Z,28.33
2022-08-10T19:00:08.094Z,29.00
2022-08-10T19:03:31.175Z,29.97
2022-08-10T19:06:25.592Z,30.18
2022-08-10T19:09:46.498Z,31.59
2022-08-10T19:12:31.826Z,32.26
2022-08-10T19:15:48.192Z,31.43
2022-08-10T19:19:25.942Z,34.04
2022-08-10T19:22:14.603Z,33.15
2022-08-10T19:25:01.569Z,32.76
2022-08-10T19:28:13.016Z,33.91
2022-08-10T19:30:58.845Z,33.21
2022-08-10T19:34:11.588Z,34.01
2022-08-10T19:36:56.010Z,34.37
2022-08-10T19:39:50.654Z,32.96
2022-08-10T19:42:53.915Z,32.53
2022-08-10T19:46:03.071Z,34.38
2022-08-10T19:49:01.994Z,33.81
2022-08-10T19:52:27.197Z,33.07
2022-08-10T19:55:32.228Z,33.17
2022-08-10T19:58:59.350Z,33.02
2022-08-10T20:01:55.349Z,33.08
2022-08-10T20:04:31.908Z,33.52
2022-08-10T20:07:24.214Z,33.58
2022-08-10T20:10:03.717Z,33.62
2022-08-10T20:12:55.906Z,33.60
2022-08-10T20:15:44.460Z,33.68
2022-08-10T20:18:36.581Z,33.79
2022-08-10T20:21:19.637Z,34.07
2022-08-10T20:24:06.249Z,34.24
2022-08-10T20:26:45.655Z,34.95
2022-08-10T20:29:58.622Z,34.15
2022-08-10T20:32:37.973Z,33.92
2022-08-10T20:35:42.304Z,33.90
2022-08-10T20:38:14.579Z,34.07
2022-08-10T20:41:19.689Z,34.17
2022-08-10T20:44:34.570Z,34.53
2022-08-10T20:47:28.993Z,34.37
2022-08-10T20:50:40.494Z,34.70
2022-08-10T20:53:16.124Z,34.84
2022-08-10T20:56:11.149Z,34.73
2022-08-10T20:59:23.493Z,35.25
2022-08-10T21:02:50.735Z,35.92
2022-08-10T21:05:31.791Z,36.24
2022-08-10T21:08:14.496Z,36.50
2022-08-10T21:11:28.155Z,36.50
2022-08-10T21:14:35.686Z,36.66
2022-08-10T21:17:35.140Z,36.79
2022-08-10T21:20:54.612Z,37.12
2022-08-10T21:25:42.202Z,37.67
2022-08-10T21:26:47.253Z,36.62
2022-08-10T21:29:41.955Z,37.03
2022-08-10T21:32:39.229Z,37.55
2022-08-10T21:35:19.958Z,37.91
2022-08-10T21:38:11.849Z,38.63
2022-08-10T21:41:56.389Z,39.02
2022-08-10T21:45:09.271Z,38.04
2022-08-10T21:48:57.601Z,37.87
2022-08-10T21:52:00.506Z,37.81
2022-08-10T21:55:08.733Z,38.40
2022-08-10T21:58:18.277Z,38.41
2022-08-10T22:01:15.270Z,38.29
2022-08-10T22:04:02.179Z,39.43
2022-08-10T22:06:55.150Z,39.62
2022-08-10T22:09:52.343Z,39.62
2022-08-10T22:12:50.744Z,39.91
2022-08-10T22:16:03.963Z,40.52
2022-08-10T22:18:58.762Z,40.86
2022-08-10T22:22:06.471Z,41.02
2022-08-10T22:25:45.208Z,40.64
2022-08-10T22:28:37.044Z,40.67
2022-08-10T22:31:47.503Z,40.31
2022-08-10T22:35:00.876Z,40.38
2022-08-10T22:37:58.512Z,40.73
2022-08-10T22:40:53.705Z,41.47
2022-08-10T22:43:48.543Z,41.70
2022-08-10T22:46:52.747Z,42.00
2022-08-10T22:49:24.101Z,41.63
2022-08-10T22:52:18.289Z,41.58
2022-08-10T22:55:23.468Z,41.26
2022-08-10T22:58:09.367Z,41.16
2022-08-10T23:00:38.185Z,41.75
2022-08-10T23:03:22.002Z,42.03
2022-08-10T23:06:00.265Z,42.14
2022-08-10T23:08:56.603Z,42.19
2022-08-10T23:11:32.120Z,42.13
2022-08-10T23:14:06.313Z,42.65
2022-08-10T23:17:11.293Z,42.26
2022-08-10T23:20:15.504Z,42.65
2022-08-10T23:23:01.848Z,42.66
2022-08-10T23:25:34.201Z,43.02
2022-08-10T23:28:12.299Z,43.41
2022-08-10T23:30:45.110Z,43.73
2022-08-10T23:33:15.107Z,43.86
2022-08-10T23:36:32.444Z,44.83
2022-08-10T23:39:24.091Z,45.01
2022-08-10T23:41:38.956Z,44.74
2022-08-10T23:44:08.136Z,44.53
2022-08-10T23:46:42.269Z,44.92
2022-08-10T23:49:12.785Z,44.77
2022-08-10T23:51:56.348Z,45.03
2022-08-10T23:54:25.565Z,44.79
2022-08-10T23:57:01.455Z,44.36
2022-08-10T23:59:31.736Z,44.68
